Mill Village, PA (16427)

1:09 PM EST on January 20, 2017 (GMT -0500)
2 miles southeast of Mill Village | | Change Station

Elev 1572 ft 41.86 °N, 79.94 °W | Updated 11 minutes ago

Rain
Rain
41.1 °F
Feels Like 37 °F
N
6.0
Wind Variable Wind from SE
Gusts 16.0 mph

Today
High -- | Low -- °F
--% Chance of Precip.
Yesterday
High -- | Low -- °F
Precip. -- in
Pressure 29.69 in
Visibility 6.0 miles
Clouds Overcast 2000 ft
Windchill 37 °F
Dew Point 40 °F
Humidity 96%
Rainfall 0.15 in
Snow Depth Not available.
7:42 AM 5:20 PM
Last Quarter, 42% visible
METAR KERI 201751Z 17009KT 6SM -RA BR OVC020 07/05 A2967 RMK AO2 SLP053 P0004 60023 T00720050 10072 20033 56023
Pressure 29.69 in
Visibility 6.0 miles
Clouds Overcast 2000 ft
Windchill 37 °F
Dew Point 40 °F
Humidity 96%
Rainfall 0.15 in
Snow Depth Not available.
7:42 AM 5:20 PM
Last Quarter, 42% visible
METAR KERI 201751Z 17009KT 6SM -RA BR OVC020 07/05 A2967 RMK AO2 SLP053 P0004 60023 T00720050 10072 20033 56023

Get Your Daily Forecast Email!

Thanks for signing up!

Be on the lookout for a verification email in your inbox.

You'll start receiving the daily forecast at 8 AM.

×

10-Day Weather Forecast

Almanac

Astronomy

Jan. 20, 2017 Rise Set
Actual Time
Civil Twilight
Nautical Twilight
Astronomical Twilight
Moon
Length of Visible Light
Length of Day
Tomorrow will be .
, % of the Moon is Illuminated

Today's Extremes

State Highs State Lows

Community

WunderPhotos

Upload Photos

1,962,540 photos uploaded!

WunderBlog® & News

Nearby

Air Quality

  Air Quality AQ Index Pollutant
Not available.

Snow Depth

Station Depth Elevation

Earthquake Activity

City Distance Mag. Time & Date
Minimum magnitude displayed is 2.5.

Coastal Water Temperatures

Place Temperature

Stations

Nearby Weather Stations

Station Location Temp. Windchill Dew Point Humidity Wind Precip. Elev Updated Type
                   

Watches & Warnings

There are currently no watches in effect.